createdAt,value
2022-11-26T00:01:22.054Z,10.16
2022-11-26T00:03:49.818Z,10.20
2022-11-26T00:06:33.397Z,9.96
2022-11-26T00:09:01.101Z,9.79
2022-11-26T00:11:28.370Z,10.00
2022-11-26T00:13:55.357Z,10.41
2022-11-26T00:16:22.346Z,9.88
2022-11-26T00:18:49.265Z,10.09
2022-11-26T00:21:21.360Z,9.84
2022-11-26T00:23:48.401Z,9.65
2022-11-26T00:26:18.019Z,10.37
2022-11-26T00:28:52.273Z,10.15
2022-11-26T00:31:19.189Z,9.86
2022-11-26T00:33:46.183Z,10.59
2022-11-26T00:36:18.518Z,10.60
2022-11-26T00:38:52.501Z,10.10
2022-11-26T00:41:22.607Z,9.30
2022-11-26T00:43:49.891Z,10.22
2022-11-26T00:46:21.497Z,10.23
2022-11-26T00:48:48.722Z,9.88
2022-11-26T00:51:18.838Z,9.66
2022-11-26T00:53:46.717Z,9.72
2022-11-26T00:56:18.770Z,10.17
2022-11-26T00:58:47.054Z,9.74
2022-11-26T01:01:23.551Z,8.99
2022-11-26T01:03:50.921Z,8.98
2022-11-26T01:06:34.519Z,8.98
2022-11-26T01:09:01.907Z,8.86
2022-11-26T01:11:28.798Z,8.53
2022-11-26T01:13:56.124Z,8.44
2022-11-26T01:16:26.358Z,7.93
2022-11-26T01:18:54.960Z,8.34
2022-11-26T01:21:22.949Z,8.50
2022-11-26T01:23:49.865Z,8.61
2022-11-26T01:26:19.150Z,8.81
2022-11-26T01:28:46.188Z,8.92
2022-11-26T01:31:17.399Z,8.79
2022-11-26T01:33:45.127Z,8.93
2022-11-26T01:36:33.095Z,9.15
2022-11-26T01:39:07.084Z,10.62
2022-11-26T01:41:39.950Z,9.97
2022-11-26T01:44:11.181Z,9.33
2022-11-26T01:46:39.038Z,8.87
2022-11-26T01:49:22.226Z,8.10
2022-11-26T01:51:53.838Z,8.57
2022-11-26T01:54:20.783Z,8.80
2022-11-26T01:56:51.626Z,9.13
2022-11-26T01:59:22.795Z,9.06
2022-11-26T02:01:51.506Z,9.08
2022-11-26T02:04:29.354Z,9.21
2022-11-26T02:06:56.837Z,8.66
2022-11-26T02:09:24.678Z,8.80
2022-11-26T02:11:51.556Z,9.01
2022-11-26T02:14:21.526Z,8.36
2022-11-26T02:16:54.469Z,7.88
2022-11-26T02:19:49.183Z,7.32
2022-11-26T02:22:36.990Z,7.03
2022-11-26T02:25:15.989Z,7.69
2022-11-26T02:28:26.377Z,7.44
2022-11-26T02:31:11.406Z,7.82
2022-11-26T02:34:02.026Z,8.26
2022-11-26T02:36:35.271Z,8.56
2022-11-26T02:39:15.020Z,7.89
2022-11-26T02:41:43.656Z,8.56
2022-11-26T02:44:10.898Z,9.38
2022-11-26T02:46:39.446Z,9.34
2022-11-26T02:49:06.872Z,9.32
2022-11-26T02:51:35.073Z,9.50
2022-11-26T02:54:02.250Z,10.33
2022-11-26T02:56:29.759Z,9.45
2022-11-26T02:58:57.411Z,8.78
2022-11-26T03:02:00.986Z,9.24
2022-11-26T03:04:31.407Z,9.82
2022-11-26T03:07:02.557Z,9.53
2022-11-26T03:09:40.410Z,9.18
2022-11-26T03:12:07.719Z,10.53
2022-11-26T03:14:34.800Z,10.18
2022-11-26T03:17:01.854Z,10.03
2022-11-26T03:19:28.732Z,10.27
2022-11-26T03:21:55.643Z,10.90
2022-11-26T03:24:22.548Z,11.26
2022-11-26T03:26:49.421Z,11.85
2022-11-26T03:29:16.311Z,11.92
2022-11-26T03:31:43.236Z,11.91
2022-11-26T03:34:10.127Z,11.11
2022-11-26T03:36:37.015Z,11.47
2022-11-26T03:39:04.136Z,11.39
2022-11-26T03:41:31.138Z,10.84
2022-11-26T03:43:58.091Z,10.83
2022-11-26T03:46:25.293Z,11.19
2022-11-26T03:48:52.210Z,10.76
2022-11-26T03:51:19.067Z,10.90
2022-11-26T03:53:45.999Z,10.54
2022-11-26T03:56:13.001Z,10.66
2022-11-26T03:58:40.161Z,9.41
2022-11-26T04:01:12.464Z,9.47
2022-11-26T04:03:40.075Z,9.37
2022-11-26T04:06:07.563Z,9.86
2022-11-26T04:08:34.450Z,9.99
2022-11-26T04:11:01.574Z,9.89
2022-11-26T04:13:28.479Z,10.70
2022-11-26T04:15:55.356Z,10.84
2022-11-26T04:18:22.298Z,10.76
2022-11-26T04:20:53.047Z,11.15
2022-11-26T04:23:20.559Z,11.01
2022-11-26T04:25:47.419Z,11.41
2022-11-26T04:28:15.357Z,11.73
2022-11-26T04:30:43.213Z,12.20
2022-11-26T04:33:10.273Z,11.52
2022-11-26T04:35:38.146Z,11.67
2022-11-26T04:38:05.037Z,11.49
2022-11-26T04:40:31.976Z,10.77
2022-11-26T04:42:58.886Z,10.73
2022-11-26T04:45:25.952Z,10.78
2022-11-26T04:47:53.140Z,9.95
2022-11-26T04:50:20.652Z,10.78
2022-11-26T04:52:48.673Z,9.94
2022-11-26T04:55:16.566Z,10.59
2022-11-26T04:57:43.662Z,10.13
2022-11-26T05:00:11.506Z,10.18
2022-11-26T05:02:38.441Z,10.67
2022-11-26T05:05:05.649Z,9.67
2022-11-26T05:07:32.748Z,9.74
2022-11-26T05:09:59.765Z,9.54
2022-11-26T05:12:26.629Z,9.24
2022-11-26T05:14:53.573Z,9.13
2022-11-26T05:17:20.473Z,9.00
2022-11-26T05:19:47.360Z,9.01
2022-11-26T05:22:15.151Z,9.52
2022-11-26T05:24:41.985Z,10.01
2022-11-26T05:27:09.096Z,10.73
2022-11-26T05:29:35.981Z,10.31
2022-11-26T05:32:02.699Z,9.38
2022-11-26T05:34:29.742Z,9.76
2022-11-26T05:36:56.595Z,9.75
2022-11-26T05:39:23.265Z,10.14
2022-11-26T05:41:50.160Z,9.92
2022-11-26T05:44:17.065Z,9.24
2022-11-26T05:46:44.016Z,9.15
2022-11-26T05:49:11.046Z,8.73
2022-11-26T05:51:37.971Z,8.83
2022-11-26T05:54:04.953Z,9.14
2022-11-26T05:56:31.813Z,9.50
2022-11-26T05:58:58.499Z,8.80
2022-11-26T06:01:25.346Z,8.70
2022-11-26T06:03:52.088Z,8.82
2022-11-26T06:06:18.978Z,8.82
2022-11-26T06:08:45.884Z,8.95
2022-11-26T06:11:13.715Z,8.79
2022-11-26T06:13:40.742Z,8.57
2022-11-26T06:16:08.371Z,8.66
2022-11-26T06:18:37.450Z,8.29
2022-11-26T06:21:05.881Z,9.04
2022-11-26T06:23:34.178Z,8.61
2022-11-26T06:26:01.273Z,8.17
2022-11-26T06:28:28.186Z,8.84
2022-11-26T06:30:55.082Z,8.80
2022-11-26T06:33:21.910Z,8.94
2022-11-26T06:35:48.606Z,9.34
2022-11-26T06:38:15.505Z,9.32
2022-11-26T06:40:42.397Z,8.97
2022-11-26T06:43:09.306Z,8.74
2022-11-26T06:45:36.309Z,9.09
2022-11-26T06:48:03.308Z,9.70
2022-11-26T06:50:30.206Z,9.14
2022-11-26T06:52:57.060Z,9.47
2022-11-26T06:55:23.745Z,10.20
2022-11-26T06:57:51.962Z,9.59
2022-11-26T07:00:19.516Z,9.62
2022-11-26T07:02:46.444Z,9.29
2022-11-26T07:05:13.340Z,9.75
2022-11-26T07:07:40.646Z,9.50
2022-11-26T07:10:08.437Z,9.91
2022-11-26T07:12:35.337Z,9.79
2022-11-26T07:15:02.245Z,9.93
2022-11-26T07:17:29.546Z,10.30
2022-11-26T07:19:56.459Z,9.71
2022-11-26T07:22:23.314Z,9.20
2022-11-26T07:24:50.038Z,9.89
2022-11-26T07:27:17.140Z,10.14
2022-11-26T07:29:44.139Z,10.35
2022-11-26T07:32:11.294Z,10.38
2022-11-26T07:34:38.392Z,10.43
2022-11-26T07:37:05.438Z,11.25
2022-11-26T07:39:32.355Z,11.75
2022-11-26T07:41:59.304Z,11.33
2022-11-26T07:44:26.171Z,12.35
2022-11-26T07:46:53.064Z,11.80
2022-11-26T07:49:20.054Z,12.02
2022-11-26T07:51:46.932Z,11.72
2022-11-26T07:54:13.811Z,11.71
2022-11-26T07:56:40.743Z,11.36
2022-11-26T07:59:07.621Z,12.27
2022-11-26T08:01:34.621Z,11.70
2022-11-26T08:04:05.411Z,10.58
2022-11-26T08:06:32.508Z,11.04
2022-11-26T08:09:00.291Z,11.81
2022-11-26T08:11:29.132Z,11.62
2022-11-26T08:13:58.760Z,11.47
2022-11-26T08:16:28.634Z,11.15
2022-11-26T08:18:59.443Z,11.23
2022-11-26T08:21:26.901Z,11.04
2022-11-26T08:23:54.623Z,10.70
2022-11-26T08:26:27.377Z,10.71
2022-11-26T08:28:58.029Z,10.71
2022-11-26T08:31:27.935Z,9.76
2022-11-26T08:34:01.368Z,10.94
2022-11-26T08:36:29.107Z,10.68
2022-11-26T08:38:58.528Z,10.14
2022-11-26T08:41:25.494Z,10.55
2022-11-26T08:44:06.284Z,10.19
2022-11-26T08:46:34.482Z,10.33
2022-11-26T08:49:01.369Z,10.48
2022-11-26T08:51:28.357Z,11.25
2022-11-26T08:53:55.214Z,11.50
2022-11-26T08:56:22.016Z,10.72
2022-11-26T08:58:49.247Z,11.27
2022-11-26T09:01:21.928Z,11.03
2022-11-26T09:03:50.372Z,11.05
2022-11-26T09:06:18.358Z,10.58
2022-11-26T09:09:05.252Z,10.67
2022-11-26T09:11:35.098Z,11.25
2022-11-26T09:14:02.810Z,10.61
2022-11-26T09:16:29.856Z,11.60
2022-11-26T09:18:58.880Z,12.16
2022-11-26T09:21:25.737Z,11.49
2022-11-26T09:23:52.585Z,11.40
2022-11-26T09:26:21.505Z,11.22
2022-11-26T09:28:49.112Z,11.07
2022-11-26T09:31:16.744Z,10.93
2022-11-26T09:33:43.864Z,11.02
2022-11-26T09:36:13.188Z,11.13
2022-11-26T09:38:40.967Z,11.29
2022-11-26T09:41:14.089Z,11.21
2022-11-26T09:43:53.276Z,11.12
2022-11-26T09:46:40.800Z,10.79
2022-11-26T09:49:18.239Z,11.59
2022-11-26T09:51:47.507Z,11.65
2022-11-26T09:54:18.512Z,11.59
2022-11-26T09:56:45.385Z,10.81
2022-11-26T09:59:18.015Z,11.29
2022-11-26T10:01:45.199Z,10.14
2022-11-26T10:04:28.789Z,10.28
2022-11-26T10:07:06.558Z,9.30
2022-11-26T10:09:40.810Z,9.64
2022-11-26T10:12:26.623Z,9.15
2022-11-26T10:15:09.575Z,9.69
2022-11-26T10:17:47.360Z,10.42
2022-11-26T10:20:36.810Z,9.82
2022-11-26T10:23:12.853Z,10.62
2022-11-26T10:25:43.608Z,10.76
2022-11-26T10:28:20.545Z,10.95
2022-11-26T10:30:53.499Z,10.77
2022-11-26T10:33:20.904Z,9.78
2022-11-26T10:35:49.986Z,10.13
2022-11-26T10:38:17.732Z,9.83
2022-11-26T10:40:44.633Z,9.81
2022-11-26T10:43:23.783Z,10.12
2022-11-26T10:45:53.118Z,9.34
2022-11-26T10:48:26.661Z,9.71
2022-11-26T10:51:02.727Z,9.89
2022-11-26T10:53:32.780Z,9.89
2022-11-26T10:56:01.131Z,10.55
2022-11-26T10:58:31.438Z,10.12
2022-11-26T11:01:00.801Z,10.39
2022-11-26T11:06:22.040Z,10.01
2022-11-26T11:08:49.571Z,9.90
2022-11-26T11:11:23.518Z,10.13
2022-11-26T11:13:50.465Z,9.43
2022-11-26T11:16:38.836Z,10.34
2022-11-26T11:19:16.808Z,10.02
2022-11-26T11:21:48.140Z,10.36
2022-11-26T11:24:24.254Z,10.18
2022-11-26T11:26:54.942Z,9.30
2022-11-26T11:29:28.898Z,9.66
2022-11-26T11:31:57.703Z,9.83
2022-11-26T11:34:33.991Z,10.13
2022-11-26T11:37:14.842Z,9.73
2022-11-26T11:39:42.796Z,10.44
2022-11-26T11:42:32.432Z,10.25
2022-11-26T11:45:00.301Z,9.51
2022-11-26T11:47:45.587Z,9.98
2022-11-26T11:50:25.041Z,9.61
2022-11-26T11:53:13.588Z,9.77
2022-11-26T11:56:02.797Z,9.97
2022-11-26T11:58:59.215Z,9.69
2022-11-26T12:01:41.591Z,9.95
2022-11-26T12:04:45.799Z,9.72
2022-11-26T12:07:34.145Z,10.00
2022-11-26T12:10:21.133Z,9.67
2022-11-26T12:12:54.149Z,9.69
2022-11-26T12:15:30.536Z,9.60
2022-11-26T12:18:24.405Z,9.93
2022-11-26T12:20:55.436Z,10.49
2022-11-26T12:23:45.411Z,10.33
2022-11-26T12:26:26.786Z,10.29
2022-11-26T12:29:18.987Z,10.36
2022-11-26T12:31:49.400Z,10.51
2022-11-26T12:34:32.275Z,10.85
2022-11-26T12:37:13.172Z,10.44
2022-11-26T12:39:58.857Z,10.11
2022-11-26T12:42:28.372Z,10.56
2022-11-26T12:44:57.838Z,10.15
2022-11-26T12:47:32.368Z,10.22
2022-11-26T12:50:02.250Z,9.99
2022-11-26T12:52:41.108Z,10.65
2022-11-26T12:55:21.623Z,10.48
2022-11-26T12:57:53.551Z,10.46
2022-11-26T13:00:36.028Z,10.06
2022-11-26T13:03:05.875Z,10.22
2022-11-26T13:05:56.279Z,9.82
2022-11-26T13:08:52.157Z,10.28
2022-11-26T13:11:34.943Z,9.69
2022-11-26T13:14:22.505Z,9.75
2022-11-26T13:17:02.905Z,10.01
2022-11-26T13:19:42.045Z,9.56
2022-11-26T13:22:24.991Z,9.78
2022-11-26T13:24:54.917Z,9.54
2022-11-26T13:27:40.189Z,10.13
2022-11-26T13:30:24.205Z,9.44
2022-11-26T13:32:50.994Z,9.86
2022-11-26T13:35:23.640Z,9.66
2022-11-26T13:38:21.211Z,9.85
2022-11-26T13:41:08.481Z,9.87
2022-11-26T13:43:53.717Z,10.19
2022-11-26T13:46:29.461Z,10.22
2022-11-26T13:48:56.387Z,10.79
2022-11-26T13:51:26.302Z,10.78
2022-11-26T13:53:56.089Z,10.55
2022-11-26T13:56:26.415Z,11.14
2022-11-26T13:59:00.296Z,10.96
2022-11-26T14:01:37.071Z,10.58
2022-11-26T14:04:07.985Z,11.25
2022-11-26T14:06:35.398Z,11.61
2022-11-26T14:09:03.069Z,11.18
2022-11-26T14:11:41.957Z,11.77
2022-11-26T14:14:24.088Z,11.33
2022-11-26T14:17:03.259Z,12.77
2022-11-26T14:19:45.071Z,12.98
2022-11-26T14:22:11.880Z,12.20
2022-11-26T14:24:53.428Z,12.60
2022-11-26T14:27:21.612Z,12.85
2022-11-26T14:29:54.382Z,13.64
2022-11-26T14:32:24.240Z,13.95
2022-11-26T14:34:56.423Z,13.62
2022-11-26T14:37:32.241Z,13.53
2022-11-26T14:40:23.305Z,13.60
2022-11-26T14:43:06.835Z,13.10
2022-11-26T14:45:33.891Z,13.41
2022-11-26T14:48:02.508Z,13.50
2022-11-26T14:50:30.740Z,13.58
2022-11-26T14:53:04.061Z,13.57
2022-11-26T14:55:31.838Z,14.58
2022-11-26T14:58:12.597Z,13.97
2022-11-26T15:00:39.553Z,14.86
2022-11-26T15:03:25.599Z,15.10
2022-11-26T15:05:52.580Z,15.18
2022-11-26T15:08:20.599Z,15.86
2022-11-26T15:11:03.345Z,15.91
2022-11-26T15:13:38.716Z,15.93
2022-11-26T15:16:27.418Z,16.11
2022-11-26T15:18:54.772Z,16.29
2022-11-26T15:21:24.656Z,16.02
2022-11-26T15:23:52.089Z,16.41
2022-11-26T15:26:20.007Z,15.26
2022-11-26T15:28:46.902Z,15.21
2022-11-26T15:31:13.906Z,15.69
2022-11-26T15:33:41.639Z,15.16
2022-11-26T15:36:14.258Z,15.29
2022-11-26T15:39:03.243Z,15.37
2022-11-26T15:41:30.746Z,15.41
2022-11-26T15:44:01.360Z,15.40
2022-11-26T15:46:29.609Z,14.62
2022-11-26T15:49:06.039Z,13.63
2022-11-26T15:51:41.195Z,14.26
2022-11-26T15:54:49.726Z,14.45
2022-11-26T15:57:26.816Z,13.27
2022-11-26T15:59:56.994Z,13.02
2022-11-26T16:02:25.740Z,14.01
2022-11-26T16:04:55.003Z,13.48
2022-11-26T16:07:27.792Z,12.75
2022-11-26T16:10:16.805Z,12.80
2022-11-26T16:12:45.146Z,12.71
2022-11-26T16:15:23.934Z,12.98
2022-11-26T16:17:51.297Z,13.22
2022-11-26T16:20:21.983Z,13.21
2022-11-26T16:22:53.540Z,12.60
2022-11-26T16:25:31.925Z,13.16
2022-11-26T16:28:10.867Z,13.23
2022-11-26T16:30:38.925Z,13.18
2022-11-26T16:33:06.675Z,13.87
2022-11-26T16:35:49.144Z,12.94
2022-11-26T16:38:22.103Z,12.91
2022-11-26T16:40:49.905Z,13.60
2022-11-26T16:43:16.905Z,13.73
2022-11-26T16:45:43.904Z,13.82
2022-11-26T16:48:22.815Z,13.92
2022-11-26T16:50:49.738Z,13.79
2022-11-26T16:53:16.726Z,13.83
2022-11-26T16:55:43.603Z,13.90
2022-11-26T16:58:26.000Z,12.87
2022-11-26T17:00:53.114Z,13.11
2022-11-26T17:03:22.838Z,12.70
2022-11-26T17:05:52.789Z,13.34
2022-11-26T17:08:20.019Z,13.37
2022-11-26T17:10:47.761Z,13.40
2022-11-26T17:13:15.604Z,12.74
2022-11-26T17:15:43.346Z,13.66
2022-11-26T17:18:19.109Z,14.02
2022-11-26T17:20:46.022Z,13.45
2022-11-26T17:23:13.286Z,14.48
2022-11-26T17:25:40.366Z,13.64
2022-11-26T17:28:14.030Z,14.89
2022-11-26T17:30:41.960Z,14.28
2022-11-26T17:33:09.532Z,14.52
2022-11-26T17:35:36.747Z,14.26
2022-11-26T17:38:04.996Z,13.71
2022-11-26T17:40:32.694Z,13.24
2022-11-26T17:42:59.650Z,13.43
2022-11-26T17:45:26.528Z,13.83
2022-11-26T17:47:53.577Z,13.44
2022-11-26T17:50:26.260Z,12.79
2022-11-26T17:52:54.762Z,13.03
2022-11-26T17:55:26.008Z,13.16
2022-11-26T17:57:53.122Z,13.38
2022-11-26T18:00:24.754Z,12.98
2022-11-26T18:02:51.950Z,11.86
2022-11-26T18:05:18.959Z,10.97
2022-11-26T18:07:46.020Z,12.70
2022-11-26T18:10:15.456Z,12.22
2022-11-26T18:12:43.624Z,12.85
2022-11-26T18:15:17.918Z,13.15
2022-11-26T18:17:52.835Z,13.21
2022-11-26T18:20:21.654Z,12.08
2022-11-26T18:22:53.371Z,12.61
2022-11-26T18:25:20.501Z,12.11
2022-11-26T18:27:47.420Z,11.52
2022-11-26T18:30:14.544Z,12.40
2022-11-26T18:32:41.433Z,12.57
2022-11-26T18:35:08.719Z,11.88
2022-11-26T18:37:36.876Z,12.27
2022-11-26T18:40:04.630Z,12.69
2022-11-26T18:42:38.990Z,13.28
2022-11-26T18:45:08.156Z,13.84
2022-11-26T18:47:35.064Z,13.71
2022-11-26T18:50:01.991Z,13.58
2022-11-26T18:52:28.840Z,13.60
2022-11-26T18:54:55.732Z,13.09
2022-11-26T18:57:22.756Z,12.67
2022-11-26T18:59:50.719Z,10.84
2022-11-26T19:02:17.904Z,11.63
2022-11-26T19:04:44.884Z,12.12
2022-11-26T19:07:12.924Z,12.58
2022-11-26T19:09:40.482Z,12.80
2022-11-26T19:12:07.733Z,12.00
2022-11-26T19:14:34.604Z,12.18
2022-11-26T19:17:01.536Z,11.91
2022-11-26T19:19:28.444Z,12.35
2022-11-26T19:22:01.096Z,12.43
2022-11-26T19:24:28.863Z,12.09
2022-11-26T19:26:55.866Z,12.59
2022-11-26T19:29:22.845Z,12.37
2022-11-26T19:31:49.804Z,11.78
2022-11-26T19:34:16.972Z,12.13
2022-11-26T19:36:48.637Z,12.43
2022-11-26T19:39:16.452Z,12.75
2022-11-26T19:41:43.395Z,12.92
2022-11-26T19:44:10.296Z,13.01
2022-11-26T19:46:40.946Z,12.34
2022-11-26T19:49:12.953Z,11.76
2022-11-26T19:51:40.867Z,12.19
2022-11-26T19:54:07.960Z,11.52
2022-11-26T19:56:35.156Z,11.32
2022-11-26T19:59:02.512Z,11.68
2022-11-26T20:01:31.413Z,12.48
2022-11-26T20:04:04.284Z,12.25
2022-11-26T20:06:32.828Z,12.37
2022-11-26T20:08:59.755Z,11.78
2022-11-26T20:11:27.720Z,12.24
2022-11-26T20:13:55.582Z,12.55
2022-11-26T20:16:26.265Z,12.54
2022-11-26T20:18:53.373Z,10.64
2022-11-26T20:21:26.227Z,11.79
2022-11-26T20:23:54.442Z,11.57
2022-11-26T20:26:28.075Z,12.11
2022-11-26T20:28:55.830Z,12.29
2022-11-26T20:31:24.220Z,13.00
2022-11-26T20:33:55.209Z,12.44
2022-11-26T20:36:23.320Z,11.81
2022-11-26T20:38:59.147Z,11.77
2022-11-26T20:41:26.744Z,10.82
2022-11-26T20:43:58.455Z,11.19
2022-11-26T20:46:27.772Z,10.95
2022-11-26T20:48:54.842Z,10.93
2022-11-26T20:51:22.340Z,10.90
2022-11-26T20:53:50.861Z,11.23
2022-11-26T20:56:20.268Z,10.26
2022-11-26T20:58:48.468Z,11.32
2022-11-26T21:01:20.702Z,11.26
2022-11-26T21:03:48.362Z,12.04
2022-11-26T21:06:16.592Z,10.90
2022-11-26T21:08:43.588Z,11.42
2022-11-26T21:11:11.634Z,11.29
2022-11-26T21:13:39.003Z,11.10
2022-11-26T21:16:08.112Z,11.01
2022-11-26T21:18:34.987Z,11.12
2022-11-26T21:21:11.103Z,11.46
2022-11-26T21:23:39.376Z,11.15
2022-11-26T21:26:11.219Z,11.02
2022-11-26T21:28:38.596Z,11.11
2022-11-26T21:31:12.082Z,10.97
2022-11-26T21:33:39.014Z,10.27
2022-11-26T21:36:10.544Z,10.46
2022-11-26T21:38:37.645Z,10.65
2022-11-26T21:41:12.762Z,9.80
2022-11-26T21:43:40.331Z,10.04
2022-11-26T21:46:09.919Z,8.94
2022-11-26T21:48:36.855Z,10.13
2022-11-26T21:51:08.132Z,9.45
2022-11-26T21:53:35.131Z,9.64
2022-11-26T21:56:18.694Z,9.46
2022-11-26T21:58:45.707Z,9.80
2022-11-26T22:01:15.082Z,10.92
2022-11-26T22:03:47.288Z,11.00
2022-11-26T22:06:14.830Z,10.53
2022-11-26T22:08:42.137Z,10.24
2022-11-26T22:11:16.989Z,10.18
2022-11-26T22:13:43.955Z,10.22
2022-11-26T22:16:12.615Z,10.49
2022-11-26T22:18:41.649Z,11.33
2022-11-26T22:21:14.625Z,10.87
2022-11-26T22:23:41.553Z,10.34
2022-11-26T22:26:08.610Z,10.15
2022-11-26T22:28:35.722Z,10.52
2022-11-26T22:31:21.963Z,10.76
2022-11-26T22:33:50.116Z,10.48
2022-11-26T22:36:17.009Z,10.79
2022-11-26T22:38:43.958Z,10.47
2022-11-26T22:41:13.093Z,10.20
2022-11-26T22:43:40.621Z,10.50
2022-11-26T22:46:11.118Z,10.52
2022-11-26T22:48:38.358Z,10.53
2022-11-26T22:51:05.657Z,10.55
2022-11-26T22:53:35.497Z,11.66
2022-11-26T22:56:04.160Z,10.24
2022-11-26T22:58:32.122Z,11.34
2022-11-26T23:01:06.674Z,11.23
2022-11-26T23:03:36.084Z,10.72
2022-11-26T23:06:05.495Z,11.17
2022-11-26T23:08:33.057Z,10.94
2022-11-26T23:11:05.517Z,11.14
2022-11-26T23:13:32.443Z,10.60
2022-11-26T23:15:59.453Z,10.63
2022-11-26T23:18:26.390Z,11.61
2022-11-26T23:21:03.922Z,10.67
2022-11-26T23:23:30.805Z,11.36
2022-11-26T23:25:57.650Z,11.56
2022-11-26T23:28:24.543Z,10.89
2022-11-26T23:30:51.438Z,11.04
2022-11-26T23:33:18.291Z,11.27
2022-11-26T23:35:45.156Z,11.44
2022-11-26T23:38:12.043Z,11.42
2022-11-26T23:40:38.965Z,11.08
2022-11-26T23:43:08.619Z,11.93
2022-11-26T23:45:35.757Z,12.11
2022-11-26T23:48:02.604Z,11.27
2022-11-26T23:50:30.264Z,11.39
2022-11-26T23:52:57.132Z,11.01
2022-11-26T23:55:24.012Z,11.14
2022-11-26T23:57:50.894Z,10.49
